createdAt,value
2018-11-06T00:00:56.818Z,78.97
2018-11-06T00:03:24.260Z,79.06
2018-11-06T00:05:51.708Z,79.32
2018-11-06T00:08:19.154Z,79.37
2018-11-06T00:10:46.660Z,79.34
2018-11-06T00:13:14.193Z,79.30
2018-11-06T00:15:41.672Z,79.15
2018-11-06T00:18:09.155Z,79.17
2018-11-06T00:20:36.605Z,79.02
2018-11-06T00:23:04.058Z,79.02
2018-11-06T00:25:31.500Z,79.07
2018-11-06T00:27:58.998Z,79.18
2018-11-06T00:30:26.439Z,79.20
2018-11-06T00:32:53.931Z,79.04
2018-11-06T00:35:21.389Z,79.14
2018-11-06T00:37:48.846Z,79.31
2018-11-06T00:40:16.309Z,79.33
2018-11-06T00:42:43.863Z,79.29
2018-11-06T00:45:11.338Z,79.38
2018-11-06T00:47:39.369Z,79.45
2018-11-06T00:50:06.853Z,79.38
2018-11-06T00:52:34.404Z,79.37
2018-11-06T00:55:01.861Z,79.61
2018-11-06T00:57:29.317Z,80.12
2018-11-06T00:59:57.814Z,80.15
2018-11-06T01:02:25.322Z,79.94
2018-11-06T01:04:52.800Z,80.05
2018-11-06T01:07:20.234Z,80.36
2018-11-06T01:09:47.706Z,80.54
2018-11-06T01:12:15.158Z,80.41
2018-11-06T01:14:42.599Z,80.15
2018-11-06T01:17:10.092Z,80.18
2018-11-06T01:19:37.526Z,80.33
2018-11-06T01:22:05.016Z,80.76
2018-11-06T01:24:32.456Z,81.15
2018-11-06T01:26:59.879Z,80.98
2018-11-06T01:29:27.326Z,80.70
2018-11-06T01:31:54.788Z,80.63
2018-11-06T01:34:22.281Z,80.90
2018-11-06T01:36:49.715Z,80.99
2018-11-06T01:39:17.167Z,80.88
2018-11-06T01:41:44.649Z,80.71
2018-11-06T01:44:12.075Z,80.67
2018-11-06T01:46:39.522Z,80.67
2018-11-06T01:49:06.953Z,80.59
2018-11-06T01:51:34.505Z,80.46
2018-11-06T01:54:02.124Z,80.32
2018-11-06T01:56:29.655Z,80.50
2018-11-06T01:58:57.087Z,80.54
2018-11-06T02:01:25.139Z,80.42
2018-11-06T02:03:52.582Z,80.31
2018-11-06T02:06:20.067Z,80.17
2018-11-06T02:08:47.525Z,80.11
2018-11-06T02:11:14.974Z,80.22
2018-11-06T02:13:42.410Z,80.12
2018-11-06T02:16:09.852Z,80.13
2018-11-06T02:18:37.302Z,80.09
2018-11-06T02:21:04.763Z,79.98
2018-11-06T02:23:32.191Z,79.65
2018-11-06T02:25:59.844Z,79.74
2018-11-06T02:28:27.326Z,79.96
2018-11-06T02:30:54.759Z,80.10
2018-11-06T02:33:22.189Z,80.16
2018-11-06T02:35:49.630Z,80.39
2018-11-06T02:38:17.089Z,80.63
2018-11-06T02:40:44.543Z,80.96
2018-11-06T02:43:12.005Z,80.79
2018-11-06T02:45:39.461Z,80.72
2018-11-06T02:48:06.895Z,80.91
2018-11-06T02:50:34.352Z,80.99
2018-11-06T02:53:01.817Z,80.92
2018-11-06T02:55:29.266Z,80.62
2018-11-06T02:57:56.732Z,80.47
2018-11-06T03:00:24.186Z,80.55
2018-11-06T03:02:51.623Z,80.75
2018-11-06T03:05:19.060Z,81.03
2018-11-06T03:07:47.370Z,80.83
2018-11-06T03:10:14.886Z,80.63
2018-11-06T03:12:42.327Z,80.53
2018-11-06T03:15:09.831Z,80.45
2018-11-06T03:17:38.035Z,80.29
2018-11-06T03:20:05.468Z,80.15
2018-11-06T03:22:33.871Z,80.13
2018-11-06T03:25:01.336Z,80.16
2018-11-06T03:27:28.826Z,80.13
2018-11-06T03:29:56.479Z,80.29
2018-11-06T03:32:23.903Z,80.19
2018-11-06T03:34:51.405Z,80.28
2018-11-06T03:37:18.908Z,80.36
2018-11-06T03:39:46.355Z,80.52
2018-11-06T03:42:13.826Z,80.67
2018-11-06T03:44:41.282Z,80.83
2018-11-06T03:47:08.732Z,80.85
2018-11-06T03:49:36.170Z,81.03
2018-11-06T03:52:03.630Z,81.05
2018-11-06T03:54:31.111Z,81.17
2018-11-06T03:56:58.566Z,81.05
2018-11-06T03:59:26.042Z,81.20
2018-11-06T04:01:53.473Z,81.35
2018-11-06T04:04:20.903Z,81.31
2018-11-06T04:06:49.277Z,81.58
2018-11-06T04:09:16.831Z,81.40
2018-11-06T04:11:44.259Z,81.21
2018-11-06T04:14:11.706Z,81.29
2018-11-06T04:16:39.159Z,81.38
2018-11-06T04:19:06.687Z,81.31
2018-11-06T04:21:34.145Z,81.13
2018-11-06T04:24:01.721Z,81.08
2018-11-06T04:26:29.176Z,80.97
2018-11-06T04:28:56.645Z,80.86
2018-11-06T04:31:24.098Z,80.78
2018-11-06T04:33:51.598Z,80.84
2018-11-06T04:36:19.035Z,80.77
2018-11-06T04:38:46.489Z,80.64
2018-11-06T04:41:13.925Z,80.93
2018-11-06T04:43:41.359Z,80.93
2018-11-06T04:46:09.028Z,80.83
2018-11-06T04:48:36.570Z,80.70
2018-11-06T04:51:04.050Z,80.69
2018-11-06T04:53:31.485Z,80.90
2018-11-06T04:55:59.024Z,80.82
2018-11-06T04:58:26.460Z,81.07
2018-11-06T05:00:53.909Z,81.29
2018-11-06T05:03:21.388Z,81.18
2018-11-06T05:05:48.842Z,80.83
2018-11-06T05:08:16.271Z,80.83
2018-11-06T05:10:43.731Z,80.95
2018-11-06T05:13:11.202Z,81.35
2018-11-06T05:15:38.639Z,81.66
2018-11-06T05:18:06.071Z,81.65
2018-11-06T05:20:33.530Z,81.89
2018-11-06T05:23:00.958Z,81.84
2018-11-06T05:25:28.451Z,81.96
2018-11-06T05:27:55.898Z,82.48
2018-11-06T05:30:23.328Z,82.79
2018-11-06T05:32:50.892Z,82.77
2018-11-06T05:35:18.309Z,82.68
2018-11-06T05:37:45.765Z,83.00
2018-11-06T05:43:19.383Z,82.51
2018-11-06T05:45:46.845Z,83.13
2018-11-06T05:48:14.291Z,83.14
2018-11-06T05:50:41.786Z,83.05
2018-11-06T05:53:10.144Z,83.50
2018-11-06T05:55:37.672Z,83.58
2018-11-06T05:58:05.165Z,83.26
2018-11-06T06:00:32.677Z,83.24
2018-11-06T06:03:00.121Z,83.19
2018-11-06T06:05:27.674Z,83.04
2018-11-06T06:07:55.120Z,82.78
2018-11-06T06:10:22.560Z,82.60
2018-11-06T06:12:50.003Z,82.87
2018-11-06T06:15:17.452Z,82.95
2018-11-06T06:17:44.965Z,83.06
2018-11-06T06:20:12.980Z,83.08
2018-11-06T06:22:42.303Z,83.03
2018-11-06T06:25:10.538Z,82.77
2018-11-06T06:27:38.073Z,82.92
2018-11-06T06:30:05.511Z,82.60
2018-11-06T06:32:32.954Z,82.25
2018-11-06T06:35:01.207Z,82.08
2018-11-06T06:37:28.606Z,81.88
2018-11-06T06:39:56.226Z,81.93
2018-11-06T06:42:23.877Z,81.64
2018-11-06T06:44:51.428Z,81.15
2018-11-06T06:47:18.860Z,80.95
2018-11-06T06:49:46.293Z,81.27
2018-11-06T06:52:13.768Z,81.41
2018-11-06T06:54:41.303Z,81.72
2018-11-06T06:57:08.658Z,81.34
2018-11-06T06:59:36.141Z,81.14
2018-11-06T07:02:03.598Z,80.94
2018-11-06T07:04:31.042Z,80.76
2018-11-06T07:06:58.499Z,80.23
2018-11-06T07:09:25.982Z,79.94
2018-11-06T07:11:53.431Z,79.69
2018-11-06T07:14:21.023Z,78.90
2018-11-06T07:16:48.469Z,78.46
2018-11-06T07:19:16.005Z,78.11
2018-11-06T07:21:43.544Z,77.91
2018-11-06T07:24:10.974Z,77.44
2018-11-06T07:26:38.424Z,76.98
2018-11-06T07:29:05.852Z,76.72
2018-11-06T07:31:33.303Z,76.71
2018-11-06T07:34:00.744Z,76.73
2018-11-06T07:36:28.224Z,76.21
2018-11-06T07:38:55.705Z,76.71
2018-11-06T07:41:23.481Z,76.37
2018-11-06T07:43:51.004Z,75.61
2018-11-06T07:46:18.463Z,75.35
2018-11-06T07:48:46.097Z,74.97
2018-11-06T07:51:14.265Z,74.09
2018-11-06T07:53:41.778Z,73.25
2018-11-06T07:56:09.312Z,72.98
2018-11-06T07:58:36.795Z,72.72
2018-11-06T08:01:04.318Z,72.29
2018-11-06T08:03:31.758Z,71.29
2018-11-06T08:05:59.338Z,69.83
2018-11-06T08:08:26.812Z,69.19
2018-11-06T08:10:54.259Z,69.27
2018-11-06T08:13:21.817Z,67.48
2018-11-06T08:15:49.263Z,66.35
2018-11-06T08:18:16.741Z,64.39
2018-11-06T08:20:44.359Z,61.85
2018-11-06T08:23:11.755Z,58.98
2018-11-06T08:25:39.192Z,57.15
2018-11-06T08:28:07.001Z,56.01
2018-11-06T08:30:34.526Z,56.04
2018-11-06T08:33:02.252Z,55.17
2018-11-06T08:35:29.723Z,55.15
2018-11-06T08:37:57.250Z,55.39
2018-11-06T08:40:24.717Z,54.93
2018-11-06T08:42:52.183Z,55.25
2018-11-06T08:45:19.774Z,54.80
2018-11-06T08:47:47.852Z,54.97
2018-11-06T08:50:15.339Z,57.20
2018-11-06T08:52:42.808Z,60.03
2018-11-06T08:55:10.278Z,60.70
2018-11-06T08:57:38.079Z,61.94
2018-11-06T09:00:06.112Z,63.88
2018-11-06T09:02:33.638Z,64.55
2018-11-06T09:05:01.171Z,64.12
2018-11-06T09:07:28.628Z,63.32
2018-11-06T09:09:56.072Z,63.28
2018-11-06T09:12:23.537Z,62.07
2018-11-06T09:14:51.098Z,60.02
2018-11-06T09:17:18.553Z,57.82
2018-11-06T09:19:46.173Z,56.02
2018-11-06T09:22:13.637Z,54.49
2018-11-06T09:24:41.096Z,55.21
2018-11-06T09:27:08.672Z,54.31
2018-11-06T09:29:36.127Z,52.66
2018-11-06T09:32:03.571Z,52.90
2018-11-06T09:34:31.031Z,53.61
2018-11-06T09:36:58.480Z,53.42
2018-11-06T09:39:25.956Z,52.85
2018-11-06T09:41:53.489Z,52.82
2018-11-06T09:44:20.935Z,53.18
2018-11-06T09:46:48.408Z,52.18
2018-11-06T09:49:15.885Z,51.92
2018-11-06T09:51:43.359Z,52.25
2018-11-06T09:54:11.011Z,53.50
2018-11-06T09:56:40.369Z,54.30
2018-11-06T09:59:07.827Z,55.72
2018-11-06T10:01:35.296Z,56.87
2018-11-06T10:04:02.788Z,56.72
2018-11-06T10:06:30.965Z,55.97
2018-11-06T10:08:58.385Z,55.91
2018-11-06T10:11:25.904Z,55.86
2018-11-06T10:13:53.309Z,55.94
2018-11-06T10:16:20.803Z,56.94
2018-11-06T10:18:48.239Z,57.85
2018-11-06T10:21:15.724Z,58.58
2018-11-06T10:23:43.239Z,58.98
2018-11-06T10:26:10.679Z,58.83
2018-11-06T10:28:38.179Z,58.29
2018-11-06T10:31:05.618Z,57.93
2018-11-06T10:33:33.068Z,57.89
2018-11-06T10:36:00.519Z,57.71
2018-11-06T10:38:28.004Z,57.81
2018-11-06T10:40:55.547Z,57.59
2018-11-06T10:43:24.208Z,57.46
2018-11-06T10:45:51.884Z,57.64
2018-11-06T10:48:19.313Z,57.67
2018-11-06T10:50:46.860Z,57.75
2018-11-06T10:53:14.310Z,57.00
2018-11-06T10:55:41.782Z,56.90
2018-11-06T10:58:09.448Z,56.57
2018-11-06T11:00:37.435Z,56.34
2018-11-06T11:03:04.871Z,56.33
2018-11-06T11:05:32.420Z,55.80
2018-11-06T11:08:00.170Z,55.11
2018-11-06T11:10:27.840Z,54.23
2018-11-06T11:12:55.245Z,54.01
2018-11-06T11:15:22.731Z,53.42
2018-11-06T11:17:50.842Z,51.51
2018-11-06T11:20:18.378Z,50.99
2018-11-06T11:22:45.859Z,52.23
2018-11-06T11:25:13.407Z,52.03
2018-11-06T11:27:40.954Z,49.46
2018-11-06T11:30:08.417Z,49.72
2018-11-06T11:32:36.005Z,52.46
2018-11-06T11:35:03.501Z,55.54
2018-11-06T11:37:31.065Z,56.93
2018-11-06T11:39:58.624Z,57.68
2018-11-06T11:42:26.180Z,58.49
2018-11-06T11:44:53.710Z,59.06
2018-11-06T11:47:21.265Z,59.36
2018-11-06T11:49:48.806Z,60.02
2018-11-06T11:52:16.661Z,60.27
2018-11-06T11:54:44.104Z,60.90
2018-11-06T11:57:11.599Z,61.36
2018-11-06T11:59:39.150Z,61.63
2018-11-06T12:02:06.667Z,61.71
2018-11-06T12:04:34.156Z,61.86
2018-11-06T12:07:01.604Z,61.88
2018-11-06T12:09:29.066Z,62.10
2018-11-06T12:11:56.543Z,62.88
2018-11-06T12:14:23.982Z,63.61
2018-11-06T12:16:51.916Z,64.72
2018-11-06T12:19:19.432Z,65.72
2018-11-06T12:21:48.080Z,65.98
2018-11-06T12:24:15.748Z,66.27
2018-11-06T12:26:43.159Z,66.37
2018-11-06T12:29:10.637Z,66.38
2018-11-06T12:31:38.140Z,66.73
2018-11-06T12:34:05.601Z,66.80
2018-11-06T12:36:33.061Z,66.71
2018-11-06T12:39:01.281Z,66.78
2018-11-06T12:41:28.699Z,66.11
2018-11-06T12:43:56.289Z,65.12
2018-11-06T12:46:23.819Z,64.35
2018-11-06T12:48:51.258Z,64.05
2018-11-06T12:51:18.901Z,64.21
2018-11-06T12:53:46.539Z,64.52
2018-11-06T12:56:14.041Z,64.63
2018-11-06T12:58:41.450Z,64.73
2018-11-06T13:01:09.075Z,65.05
2018-11-06T13:03:36.743Z,65.23
2018-11-06T13:06:05.152Z,65.31
2018-11-06T13:08:33.130Z,65.14
2018-11-06T13:11:00.589Z,65.56
2018-11-06T13:13:28.045Z,65.61
2018-11-06T13:15:55.584Z,65.73
2018-11-06T13:18:23.046Z,65.97
2018-11-06T13:20:51.092Z,66.19
2018-11-06T13:23:18.554Z,66.46
2018-11-06T13:25:46.223Z,66.78
2018-11-06T13:28:13.581Z,67.30
2018-11-06T13:30:41.067Z,67.72
2018-11-06T13:33:08.529Z,67.85
2018-11-06T13:35:35.984Z,68.00
2018-11-06T13:38:03.445Z,68.95
2018-11-06T13:40:30.921Z,69.26
2018-11-06T13:42:58.548Z,69.62
2018-11-06T13:45:26.015Z,70.38
2018-11-06T13:47:53.344Z,71.28
2018-11-06T13:50:20.900Z,71.85
2018-11-06T13:52:50.016Z,72.62
2018-11-06T13:55:17.542Z,72.97
2018-11-06T13:57:45.039Z,73.87
2018-11-06T14:00:12.697Z,74.64
2018-11-06T14:02:40.162Z,75.04
2018-11-06T14:05:07.668Z,75.77
2018-11-06T14:07:35.137Z,77.19
2018-11-06T14:10:03.140Z,77.90
2018-11-06T14:12:30.599Z,77.58
2018-11-06T14:14:58.668Z,77.76
2018-11-06T14:17:26.185Z,77.69
2018-11-06T14:19:53.633Z,77.34
2018-11-06T14:22:21.061Z,77.19
2018-11-06T14:24:48.508Z,76.99
2018-11-06T14:27:15.978Z,76.98
2018-11-06T14:29:43.485Z,76.99
2018-11-06T14:32:11.007Z,77.07
2018-11-06T14:34:39.488Z,77.45
2018-11-06T14:37:06.926Z,77.46
2018-11-06T14:39:34.368Z,77.27
2018-11-06T14:42:01.979Z,77.11
2018-11-06T14:44:29.379Z,76.88
2018-11-06T14:46:56.890Z,77.18
2018-11-06T14:49:24.367Z,77.52
2018-11-06T14:51:51.849Z,77.10
2018-11-06T14:54:19.489Z,77.32
2018-11-06T14:56:47.741Z,77.20
2018-11-06T14:59:15.254Z,76.79
2018-11-06T15:01:42.816Z,76.60
2018-11-06T15:04:10.467Z,77.03
2018-11-06T15:06:37.932Z,76.87
2018-11-06T15:09:05.445Z,76.95
2018-11-06T15:11:33.167Z,77.12
2018-11-06T15:14:00.607Z,77.19
2018-11-06T15:16:28.066Z,77.05
2018-11-06T15:18:55.590Z,77.01
2018-11-06T15:21:23.391Z,76.84
2018-11-06T15:23:50.827Z,76.90
2018-11-06T15:26:18.337Z,77.08
2018-11-06T15:28:45.904Z,77.49
2018-11-06T15:31:13.374Z,77.87
2018-11-06T15:33:40.835Z,77.93
2018-11-06T15:36:08.273Z,78.14
2018-11-06T15:38:35.720Z,78.22
2018-11-06T15:41:03.330Z,77.95
2018-11-06T15:43:30.700Z,77.53
2018-11-06T15:45:58.332Z,77.35
2018-11-06T15:48:25.795Z,77.38
2018-11-06T15:50:53.240Z,77.68
2018-11-06T15:53:20.694Z,77.50
2018-11-06T15:55:48.122Z,77.45
2018-11-06T15:58:16.225Z,77.68
2018-11-06T16:00:43.737Z,77.81
2018-11-06T16:03:11.252Z,78.74
2018-11-06T16:05:38.691Z,78.96
2018-11-06T16:08:06.232Z,79.29
2018-11-06T16:10:33.735Z,79.36
2018-11-06T16:13:01.368Z,79.22
2018-11-06T16:15:28.952Z,79.05
2018-11-06T16:17:56.318Z,78.83
2018-11-06T16:20:23.808Z,78.80
2018-11-06T16:22:51.243Z,77.90
2018-11-06T16:25:18.731Z,78.08
2018-11-06T16:27:46.334Z,78.60
2018-11-06T16:30:13.807Z,79.17
2018-11-06T16:32:41.276Z,79.57
2018-11-06T16:35:08.733Z,79.78
2018-11-06T16:37:36.179Z,79.75
2018-11-06T16:40:03.621Z,79.29
2018-11-06T16:42:31.060Z,79.70
2018-11-06T16:44:58.726Z,80.64
2018-11-06T16:47:26.212Z,80.95
2018-11-06T16:49:53.664Z,80.93
2018-11-06T16:52:21.245Z,81.10
2018-11-06T16:54:48.687Z,81.16
2018-11-06T16:57:16.204Z,81.52
2018-11-06T16:59:43.943Z,81.42
2018-11-06T17:02:11.331Z,81.29
2018-11-06T17:04:39.010Z,81.09
2018-11-06T17:07:06.505Z,81.20
2018-11-06T17:09:34.119Z,81.18
2018-11-06T17:12:01.579Z,81.15
2018-11-06T17:14:29.009Z,81.09
2018-11-06T17:16:56.469Z,81.13
2018-11-06T17:19:23.911Z,81.14
2018-11-06T17:21:51.482Z,80.88
2018-11-06T17:24:18.976Z,80.96
2018-11-06T17:26:47.448Z,81.22
2018-11-06T17:29:14.913Z,81.62
2018-11-06T17:31:42.809Z,81.23
2018-11-06T17:34:11.268Z,81.43
2018-11-06T17:36:38.730Z,81.83
2018-11-06T17:39:06.237Z,81.50
2018-11-06T17:41:33.691Z,81.34
2018-11-06T17:44:01.276Z,81.88
2018-11-06T17:46:28.745Z,82.09
2018-11-06T17:48:56.166Z,82.02
2018-11-06T17:51:23.611Z,82.28
2018-11-06T17:53:51.047Z,82.18
2018-11-06T17:56:18.492Z,81.47
2018-11-06T17:58:46.046Z,81.04
2018-11-06T18:01:13.475Z,81.59
2018-11-06T18:03:40.911Z,81.84
2018-11-06T18:06:08.354Z,82.01
2018-11-06T18:08:35.846Z,82.15
2018-11-06T18:11:03.288Z,81.80
2018-11-06T18:13:30.720Z,81.70
2018-11-06T18:15:58.183Z,81.72
2018-11-06T18:18:25.650Z,81.45
2018-11-06T18:20:53.162Z,81.45
2018-11-06T18:23:20.635Z,81.63
2018-11-06T18:25:48.383Z,81.53
2018-11-06T18:28:15.811Z,81.56
2018-11-06T18:30:43.374Z,81.58
2018-11-06T18:33:10.855Z,81.89
2018-11-06T18:35:38.662Z,81.92
2018-11-06T18:38:06.102Z,82.11
2018-11-06T18:40:33.548Z,82.26
2018-11-06T18:43:00.994Z,82.24
2018-11-06T18:45:28.462Z,82.52
2018-11-06T18:47:55.924Z,82.66
2018-11-06T18:50:23.360Z,82.66
2018-11-06T18:52:50.792Z,82.21
2018-11-06T18:55:18.235Z,81.91
2018-11-06T18:57:45.685Z,81.63
2018-11-06T19:00:13.291Z,81.03
2018-11-06T19:02:41.083Z,80.49
2018-11-06T19:05:08.853Z,81.01
2018-11-06T19:07:37.300Z,81.37
2018-11-06T19:10:05.079Z,81.43
2018-11-06T19:12:33.788Z,81.21
2018-11-06T19:15:01.234Z,80.90
2018-11-06T19:17:28.689Z,80.82
2018-11-06T19:19:56.961Z,80.68
2018-11-06T19:22:24.416Z,80.48
2018-11-06T19:24:51.867Z,80.17
2018-11-06T19:27:19.324Z,80.22
2018-11-06T19:29:46.809Z,80.45
2018-11-06T19:32:14.973Z,80.36
2018-11-06T19:34:42.419Z,80.37
2018-11-06T19:37:09.898Z,80.52
2018-11-06T19:39:37.325Z,80.79
2018-11-06T19:42:04.840Z,81.49
2018-11-06T19:44:32.281Z,81.87
2018-11-06T19:46:59.707Z,81.75
2018-11-06T19:49:27.140Z,81.79
2018-11-06T19:51:55.568Z,81.67
2018-11-06T19:54:23.044Z,81.76
2018-11-06T19:56:50.544Z,81.74
2018-11-06T19:59:18.002Z,82.04
2018-11-06T20:01:45.426Z,81.78
2018-11-06T20:04:12.939Z,81.84
2018-11-06T20:06:40.490Z,81.87
2018-11-06T20:09:08.001Z,81.80
2018-11-06T20:11:35.535Z,82.01
2018-11-06T20:14:03.020Z,82.41
2018-11-06T20:16:30.490Z,82.41
2018-11-06T20:18:57.964Z,82.78
2018-11-06T20:21:26.232Z,82.94
2018-11-06T20:23:53.619Z,82.88
2018-11-06T20:26:21.096Z,82.99
2018-11-06T20:28:48.584Z,83.17
2018-11-06T20:31:16.653Z,83.06
2018-11-06T20:33:44.419Z,82.99
2018-11-06T20:36:11.674Z,82.99
2018-11-06T20:38:39.203Z,83.33
2018-11-06T20:41:06.654Z,83.40
2018-11-06T20:43:34.082Z,83.45
2018-11-06T20:46:01.597Z,83.43
2018-11-06T20:48:29.037Z,83.60
2018-11-06T20:50:56.499Z,83.48
2018-11-06T20:53:24.006Z,83.48
2018-11-06T20:55:51.656Z,83.22
2018-11-06T20:58:19.113Z,82.90
2018-11-06T21:00:46.549Z,83.09
2018-11-06T21:03:13.996Z,83.38
2018-11-06T21:05:41.479Z,83.26
2018-11-06T21:08:08.936Z,83.30
2018-11-06T21:10:36.602Z,83.34
2018-11-06T21:13:04.064Z,83.64
2018-11-06T21:15:31.510Z,83.50
2018-11-06T21:17:59.164Z,83.41
2018-11-06T21:20:26.549Z,83.30
2018-11-06T21:22:54.062Z,83.34
2018-11-06T21:25:21.622Z,83.13
2018-11-06T21:27:49.013Z,83.03
2018-11-06T21:30:16.454Z,83.08
2018-11-06T21:32:44.425Z,83.32
2018-11-06T21:35:11.879Z,83.60
2018-11-06T21:37:39.414Z,83.74
2018-11-06T21:40:06.847Z,83.80
2018-11-06T21:42:34.309Z,83.86
2018-11-06T21:45:01.800Z,84.08
2018-11-06T21:47:29.272Z,84.09
2018-11-06T21:49:56.921Z,84.12
2018-11-06T21:52:24.414Z,84.33
2018-11-06T21:54:51.891Z,84.31
2018-11-06T21:57:19.413Z,84.32
2018-11-06T21:59:46.850Z,84.14
2018-11-06T22:02:14.327Z,84.18
2018-11-06T22:04:42.601Z,84.15
2018-11-06T22:07:10.060Z,84.11
2018-11-06T22:09:37.585Z,83.84
2018-11-06T22:12:05.081Z,83.91
2018-11-06T22:14:32.513Z,84.13
2018-11-06T22:17:00.042Z,84.18
2018-11-06T22:19:27.515Z,84.10
2018-11-06T22:21:54.985Z,84.09
2018-11-06T22:24:22.433Z,83.83
2018-11-06T22:26:50.028Z,83.71
2018-11-06T22:29:17.566Z,83.64
2018-11-06T22:31:45.201Z,83.71
2018-11-06T22:34:12.569Z,83.74
2018-11-06T22:36:40.107Z,84.02
2018-11-06T22:39:07.541Z,84.08
2018-11-06T22:41:35.043Z,84.02
2018-11-06T22:44:02.491Z,84.06
2018-11-06T22:46:29.935Z,84.35
2018-11-06T22:48:57.391Z,84.45
2018-11-06T22:51:24.907Z,84.29
2018-11-06T22:53:52.986Z,84.11
2018-11-06T22:56:20.402Z,83.89
2018-11-06T22:58:48.478Z,83.99
2018-11-06T23:01:15.886Z,84.19
2018-11-06T23:03:43.335Z,84.48
2018-11-06T23:06:11.001Z,84.63
2018-11-06T23:08:38.154Z,84.40
2018-11-06T23:11:05.592Z,84.46
2018-11-06T23:13:33.004Z,84.57
2018-11-06T23:16:00.447Z,84.58
2018-11-06T23:18:27.876Z,84.41
2018-11-06T23:20:55.305Z,84.69
2018-11-06T23:23:22.709Z,84.99
2018-11-06T23:25:50.151Z,85.13
2018-11-06T23:28:17.580Z,85.04
2018-11-06T23:30:45.020Z,84.92
2018-11-06T23:33:12.561Z,85.37
2018-11-06T23:35:40.197Z,85.26
2018-11-06T23:38:07.628Z,85.05
2018-11-06T23:40:35.324Z,85.43
2018-11-06T23:43:03.041Z,85.46
2018-11-06T23:45:30.709Z,85.58
2018-11-06T23:47:58.120Z,85.93
2018-11-06T23:50:25.616Z,85.90
2018-11-06T23:52:53.086Z,85.68
2018-11-06T23:55:20.536Z,85.41
2018-11-06T23:57:47.971Z,85.38
